sensor_id;sensor_type;location;lat;lon;timestamp;pressure;altitude;pressure_sealevel;temperature;humidity
68141;BME280;54941;52.220;104.306;2023-02-18T00:02:20;96627.94;;;-9.47;91.53
68141;BME280;54941;52.220;104.306;2023-02-18T00:04:46;96622.78;;;-9.44;91.85
68141;BME280;54941;52.220;104.306;2023-02-18T00:07:13;96624.31;;;-9.41;91.63
68141;BME280;54941;52.220;104.306;2023-02-18T00:09:39;96621.44;;;-9.33;92.45
68141;BME280;54941;52.220;104.306;2023-02-18T00:12:06;96625.22;;;-9.26;93.19
68141;BME280;54941;52.220;104.306;2023-02-18T00:14:34;96622.28;;;-9.17;94.03
68141;BME280;54941;52.220;104.306;2023-02-18T00:17:00;96623.88;;;-9.16;94.63
68141;BME280;54941;52.220;104.306;2023-02-18T00:19:26;96630.22;;;-9.26;94.48
68141;BME280;54941;52.220;104.306;2023-02-18T00:21:53;96618.97;;;-9.18;94.40
68141;BME280;54941;52.220;104.306;2023-02-18T00:24:19;96622.44;;;-9.20;94.21
68141;BME280;54941;52.220;104.306;2023-02-18T00:26:48;96625.72;;;-9.20;94.24
68141;BME280;54941;52.220;104.306;2023-02-18T00:29:15;96623.72;;;-9.13;94.38
68141;BME280;54941;52.220;104.306;2023-02-18T00:31:42;96623.97;;;-9.18;94.17
68141;BME280;54941;52.220;104.306;2023-02-18T00:34:09;96630.56;;;-9.17;94.31
68141;BME280;54941;52.220;104.306;2023-02-18T00:36:36;96629.53;;;-9.13;93.94
68141;BME280;54941;52.220;104.306;2023-02-18T00:39:05;96630.41;;;-9.14;93.94
68141;BME280;54941;52.220;104.306;2023-02-18T00:41:32;96634.84;;;-9.03;94.02
68141;BME280;54941;52.220;104.306;2023-02-18T00:43:59;96634.22;;;-8.91;93.92
68141;BME280;54941;52.220;104.306;2023-02-18T00:46:26;96627.09;;;-8.83;94.12
68141;BME280;54941;52.220;104.306;2023-02-18T00:48:54;96639.28;;;-8.77;93.52
68141;BME280;54941;52.220;104.306;2023-02-18T00:51:21;96631.97;;;-8.80;93.63
68141;BME280;54941;52.220;104.306;2023-02-18T00:53:49;96632.34;;;-8.72;93.80
68141;BME280;54941;52.220;104.306;2023-02-18T00:56:15;96638.31;;;-8.74;93.60
68141;BME280;54941;52.220;104.306;2023-02-18T00:58:42;96637.09;;;-8.67;93.62
68141;BME280;54941;52.220;104.306;2023-02-18T01:01:09;96632.03;;;-8.50;93.18
68141;BME280;54941;52.220;104.306;2023-02-18T01:03:36;96637.50;;;-8.59;93.04
68141;BME280;54941;52.220;104.306;2023-02-18T01:06:06;96636.28;;;-8.36;93.15
68141;BME280;54941;52.220;104.306;2023-02-18T01:08:33;96638.06;;;-8.24;92.82
68141;BME280;54941;52.220;104.306;2023-02-18T01:10:59;96629.41;;;-8.33;92.74
68141;BME280;54941;52.220;104.306;2023-02-18T01:13:27;96629.03;;;-8.27;92.87
68141;BME280;54941;52.220;104.306;2023-02-18T01:15:53;96629.34;;;-8.17;92.54
68141;BME280;54941;52.220;104.306;2023-02-18T01:18:20;96623.53;;;-8.18;91.67
68141;BME280;54941;52.220;104.306;2023-02-18T01:20:47;96624.59;;;-8.22;92.20
68141;BME280;54941;52.220;104.306;2023-02-18T01:23:15;96633.44;;;-8.16;92.32
68141;BME280;54941;52.220;104.306;2023-02-18T01:25:42;96633.03;;;-8.09;92.54
68141;BME280;54941;52.220;104.306;2023-02-18T01:28:09;96630.91;;;-8.01;92.13
68141;BME280;54941;52.220;104.306;2023-02-18T01:30:36;96629.81;;;-8.11;92.32
68141;BME280;54941;52.220;104.306;2023-02-18T01:33:02;96632.56;;;-8.15;92.39
68141;BME280;54941;52.220;104.306;2023-02-18T01:35:29;96645.44;;;-8.07;92.60
68141;BME280;54941;52.220;104.306;2023-02-18T01:37:55;96641.66;;;-7.84;92.41
68141;BME280;54941;52.220;104.306;2023-02-18T01:40:26;96647.25;;;-7.65;92.03
68141;BME280;54941;52.220;104.306;2023-02-18T01:42:53;96651.19;;;-7.61;91.86
68141;BME280;54941;52.220;104.306;2023-02-18T01:45:47;96649.56;;;-7.62;91.34
68141;BME280;54941;52.220;104.306;2023-02-18T01:48:17;96657.09;;;-7.62;91.33
68141;BME280;54941;52.220;104.306;2023-02-18T01:50:47;96656.84;;;-7.44;91.44
68141;BME280;54941;52.220;104.306;2023-02-18T01:53:17;96657.91;;;-7.48;91.21
68141;BME280;54941;52.220;104.306;2023-02-18T01:55:47;96664.78;;;-7.51;91.73
68141;BME280;54941;52.220;104.306;2023-02-18T01:58:14;96660.41;;;-7.33;91.55
68141;BME280;54941;52.220;104.306;2023-02-18T02:00:41;96660.03;;;-7.27;91.18
68141;BME280;54941;52.220;104.306;2023-02-18T02:03:07;96657.09;;;-7.06;90.94
68141;BME280;54941;52.220;104.306;2023-02-18T02:05:34;96659.78;;;-7.23;90.27
68141;BME280;54941;52.220;104.306;2023-02-18T02:08:00;96664.00;;;-7.23;89.66
68141;BME280;54941;52.220;104.306;2023-02-18T02:10:41;96658.34;;;-7.13;89.36
68141;BME280;54941;52.220;104.306;2023-02-18T02:13:18;96659.44;;;-7.03;88.96
68141;BME280;54941;52.220;104.306;2023-02-18T02:16:11;96667.56;;;-6.99;88.60
68141;BME280;54941;52.220;104.306;2023-02-18T02:18:52;96669.47;;;-7.03;88.87
68141;BME280;54941;52.220;104.306;2023-02-18T02:21:47;96674.88;;;-6.82;89.17
68141;BME280;54941;52.220;104.306;2023-02-18T02:24:50;96670.94;;;-6.72;88.68
68141;BME280;54941;52.220;104.306;2023-02-18T02:27:24;96676.44;;;-6.53;88.60
68141;BME280;54941;52.220;104.306;2023-02-18T02:30:26;96676.16;;;-6.89;88.76
68141;BME280;54941;52.220;104.306;2023-02-18T02:36:04;96685.88;;;-6.70;88.65
68141;BME280;54941;52.220;104.306;2023-02-18T02:38:36;96680.50;;;-6.64;88.49
68141;BME280;54941;52.220;104.306;2023-02-18T02:41:13;96695.44;;;-6.63;89.42
68141;BME280;54941;52.220;104.306;2023-02-18T02:43:52;96690.16;;;-6.58;89.28
68141;BME280;54941;52.220;104.306;2023-02-18T02:46:26;96697.16;;;-6.63;89.94
68141;BME280;54941;52.220;104.306;2023-02-18T02:48:58;96699.50;;;-6.33;89.94
68141;BME280;54941;52.220;104.306;2023-02-18T02:51:33;96699.06;;;-6.40;90.00
68141;BME280;54941;52.220;104.306;2023-02-18T02:54:12;96692.13;;;-5.96;89.38
68141;BME280;54941;52.220;104.306;2023-02-18T02:56:38;96697.09;;;-5.56;88.69
68141;BME280;54941;52.220;104.306;2023-02-18T02:59:09;96709.84;;;-5.47;87.94
68141;BME280;54941;52.220;104.306;2023-02-18T03:01:43;96702.03;;;-4.79;86.76
68141;BME280;54941;52.220;104.306;2023-02-18T03:04:32;96706.56;;;-5.09;85.13
68141;BME280;54941;52.220;104.306;2023-02-18T03:07:32;96706.91;;;-4.52;83.99
68141;BME280;54941;52.220;104.306;2023-02-18T03:10:12;96705.94;;;-4.87;84.00
68141;BME280;54941;52.220;104.306;2023-02-18T03:12:47;96708.00;;;-4.44;83.36
68141;BME280;54941;52.220;104.306;2023-02-18T03:15:22;96712.84;;;-4.53;82.80
68141;BME280;54941;52.220;104.306;2023-02-18T03:17:56;96718.66;;;-4.40;83.58
68141;BME280;54941;52.220;104.306;2023-02-18T03:20:27;96698.94;;;-4.46;82.69
68141;BME280;54941;52.220;104.306;2023-02-18T03:23:01;96710.00;;;-4.12;81.18
68141;BME280;54941;52.220;104.306;2023-02-18T03:25:30;96711.78;;;-4.25;80.90
68141;BME280;54941;52.220;104.306;2023-02-18T03:28:01;96710.84;;;-4.24;80.74
68141;BME280;54941;52.220;104.306;2023-02-18T03:30:32;96710.84;;;-4.24;80.82
68141;BME280;54941;52.220;104.306;2023-02-18T03:33:03;96710.53;;;-4.20;79.53
68141;BME280;54941;52.220;104.306;2023-02-18T03:35:29;96704.19;;;-4.49;80.95
68141;BME280;54941;52.220;104.306;2023-02-18T03:38:01;96715.56;;;-4.44;80.90
68141;BME280;54941;52.220;104.306;2023-02-18T03:40:32;96713.88;;;-4.19;80.49
68141;BME280;54941;52.220;104.306;2023-02-18T03:42:58;96716.03;;;-4.38;80.04
68141;BME280;54941;52.220;104.306;2023-02-18T03:45:26;96716.75;;;-4.36;81.69
68141;BME280;54941;52.220;104.306;2023-02-18T03:47:52;96716.66;;;-4.11;80.83
68141;BME280;54941;52.220;104.306;2023-02-18T03:50:19;96720.91;;;-4.61;81.12
68141;BME280;54941;52.220;104.306;2023-02-18T03:52:45;96714.19;;;-4.73;83.97
68141;BME280;54941;52.220;104.306;2023-02-18T03:55:13;96720.97;;;-4.50;85.61
68141;BME280;54941;52.220;104.306;2023-02-18T03:57:40;96726.56;;;-4.95;84.25
68141;BME280;54941;52.220;104.306;2023-02-18T04:00:07;96717.78;;;-4.64;84.04
68141;BME280;54941;52.220;104.306;2023-02-18T04:02:34;96722.44;;;-4.58;82.98
68141;BME280;54941;52.220;104.306;2023-02-18T04:05:01;96732.22;;;-4.06;81.93
68141;BME280;54941;52.220;104.306;2023-02-18T04:07:29;96745.41;;;-4.39;82.29
68141;BME280;54941;52.220;104.306;2023-02-18T04:09:55;96745.47;;;-4.28;83.19
68141;BME280;54941;52.220;104.306;2023-02-18T04:12:23;96736.81;;;-4.60;82.56
68141;BME280;54941;52.220;104.306;2023-02-18T04:14:50;96743.09;;;-4.29;83.72
68141;BME280;54941;52.220;104.306;2023-02-18T04:17:16;96742.34;;;-3.95;82.49
68141;BME280;54941;52.220;104.306;2023-02-18T04:19:43;96743.94;;;-3.81;80.45
68141;BME280;54941;52.220;104.306;2023-02-18T04:22:09;96739.69;;;-4.41;79.49
68141;BME280;54941;52.220;104.306;2023-02-18T04:24:35;96740.66;;;-3.95;79.74
68141;BME280;54941;52.220;104.306;2023-02-18T04:27:02;96747.72;;;-4.36;80.37
68141;BME280;54941;52.220;104.306;2023-02-18T04:29:30;96746.56;;;-4.07;78.81
68141;BME280;54941;52.220;104.306;2023-02-18T04:31:56;96753.75;;;-4.38;80.26
68141;BME280;54941;52.220;104.306;2023-02-18T04:34:23;96744.84;;;-4.55;81.93
68141;BME280;54941;52.220;104.306;2023-02-18T04:36:49;96754.41;;;-4.11;79.83
68141;BME280;54941;52.220;104.306;2023-02-18T04:39:15;96747.78;;;-3.65;79.52
68141;BME280;54941;52.220;104.306;2023-02-18T04:41:42;96750.69;;;-3.82;78.72
68141;BME280;54941;52.220;104.306;2023-02-18T04:44:08;96743.91;;;-4.29;77.88
68141;BME280;54941;52.220;104.306;2023-02-18T04:46:37;96750.44;;;-4.03;79.64
68141;BME280;54941;52.220;104.306;2023-02-18T04:49:04;96747.63;;;-4.47;81.33
68141;BME280;54941;52.220;104.306;2023-02-18T04:51:30;96743.00;;;-4.04;79.69
68141;BME280;54941;52.220;104.306;2023-02-18T04:53:56;96740.06;;;-3.98;78.52
68141;BME280;54941;52.220;104.306;2023-02-18T04:56:23;96733.97;;;-3.83;76.43
68141;BME280;54941;52.220;104.306;2023-02-18T04:58:49;96756.41;;;-3.56;75.54
68141;BME280;54941;52.220;104.306;2023-02-18T05:01:16;96740.25;;;-3.54;75.04
68141;BME280;54941;52.220;104.306;2023-02-18T05:03:43;96763.88;;;-3.91;75.42
68141;BME280;54941;52.220;104.306;2023-02-18T05:06:10;96763.69;;;-3.64;75.92
68141;BME280;54941;52.220;104.306;2023-02-18T05:08:36;96767.97;;;-4.14;76.17
68141;BME280;54941;52.220;104.306;2023-02-18T05:11:05;96771.38;;;-4.02;76.84
68141;BME280;54941;52.220;104.306;2023-02-18T05:13:32;96761.66;;;-4.19;75.37
68141;BME280;54941;52.220;104.306;2023-02-18T05:15:58;96784.38;;;-3.72;76.06
68141;BME280;54941;52.220;104.306;2023-02-18T05:18:24;96774.19;;;-3.70;74.84
68141;BME280;54941;52.220;104.306;2023-02-18T05:20:52;96779.94;;;-4.79;85.86
68141;BME280;54941;52.220;104.306;2023-02-18T05:23:19;96782.34;;;-4.52;88.77
68141;BME280;54941;52.220;104.306;2023-02-18T05:25:46;96775.88;;;-3.95;86.68
68141;BME280;54941;52.220;104.306;2023-02-18T05:28:12;96783.56;;;-3.96;85.99
68141;BME280;54941;52.220;104.306;2023-02-18T05:30:39;96783.78;;;-3.75;83.70
68141;BME280;54941;52.220;104.306;2023-02-18T05:33:05;96791.66;;;-3.56;83.98
68141;BME280;54941;52.220;104.306;2023-02-18T05:35:31;96782.09;;;-3.05;79.91
68141;BME280;54941;52.220;104.306;2023-02-18T05:37:59;96792.88;;;-3.38;75.69
68141;BME280;54941;52.220;104.306;2023-02-18T05:40:25;96787.28;;;-3.30;73.71
68141;BME280;54941;52.220;104.306;2023-02-18T05:42:52;96795.41;;;-3.62;71.33
68141;BME280;54941;52.220;104.306;2023-02-18T05:45:18;96787.31;;;-3.54;68.95
68141;BME280;54941;52.220;104.306;2023-02-18T05:47:44;96794.56;;;-3.73;68.45
68141;BME280;54941;52.220;104.306;2023-02-18T05:50:11;96784.00;;;-3.20;67.48
68141;BME280;54941;52.220;104.306;2023-02-18T05:52:37;96796.19;;;-3.37;65.51
68141;BME280;54941;52.220;104.306;2023-02-18T05:55:06;96799.25;;;-3.69;65.22
68141;BME280;54941;52.220;104.306;2023-02-18T05:57:32;96790.31;;;-3.25;65.07
68141;BME280;54941;52.220;104.306;2023-02-18T05:59:59;96793.91;;;-3.06;63.79
68141;BME280;54941;52.220;104.306;2023-02-18T06:02:25;96784.06;;;-3.32;66.85
68141;BME280;54941;52.220;104.306;2023-02-18T06:04:51;96787.03;;;-3.04;67.02
68141;BME280;54941;52.220;104.306;2023-02-18T06:07:18;96793.81;;;-2.93;66.46
68141;BME280;54941;52.220;104.306;2023-02-18T06:09:44;96794.31;;;-2.66;66.73
68141;BME280;54941;52.220;104.306;2023-02-18T06:12:12;96790.19;;;-2.78;66.42
68141;BME280;54941;52.220;104.306;2023-02-18T06:14:38;96792.09;;;-2.92;66.02
68141;BME280;54941;52.220;104.306;2023-02-18T06:17:05;96789.16;;;-2.75;66.77
68141;BME280;54941;52.220;104.306;2023-02-18T06:19:31;96799.34;;;-2.77;66.07
68141;BME280;54941;52.220;104.306;2023-02-18T06:21:57;96799.88;;;-2.96;66.23
68141;BME280;54941;52.220;104.306;2023-02-18T06:24:24;96793.72;;;-2.69;64.67
68141;BME280;54941;52.220;104.306;2023-02-18T06:26:50;96798.25;;;-3.08;64.95
68141;BME280;54941;52.220;104.306;2023-02-18T06:29:18;96791.00;;;-2.77;65.27
68141;BME280;54941;52.220;104.306;2023-02-18T06:31:44;96785.38;;;-2.70;64.43
68141;BME280;54941;52.220;104.306;2023-02-18T06:34:11;96791.31;;;-2.93;65.33
68141;BME280;54941;52.220;104.306;2023-02-18T06:36:37;96790.06;;;-2.76;64.69
68141;BME280;54941;52.220;104.306;2023-02-18T06:39:04;96798.19;;;-2.73;66.07
68141;BME280;54941;52.220;104.306;2023-02-18T06:41:31;96798.53;;;-2.88;65.75
68141;BME280;54941;52.220;104.306;2023-02-18T06:43:58;96802.38;;;-2.38;65.10
68141;BME280;54941;52.220;104.306;2023-02-18T06:46:26;96801.09;;;-2.77;66.28
68141;BME280;54941;52.220;104.306;2023-02-18T06:48:52;96795.34;;;-2.68;65.24
68141;BME280;54941;52.220;104.306;2023-02-18T06:51:18;96803.38;;;-2.63;65.95
68141;BME280;54941;52.220;104.306;2023-02-18T06:53:45;96800.88;;;-2.41;65.46
68141;BME280;54941;52.220;104.306;2023-02-18T06:56:11;96793.03;;;-2.82;65.91
68141;BME280;54941;52.220;104.306;2023-02-18T06:58:38;96801.63;;;-2.85;66.24
68141;BME280;54941;52.220;104.306;2023-02-18T07:01:04;96805.44;;;-2.57;64.95
68141;BME280;54941;52.220;104.306;2023-02-18T07:03:32;96808.56;;;-3.11;66.13
68141;BME280;54941;52.220;104.306;2023-02-18T07:05:58;96805.66;;;-2.82;65.79
68141;BME280;54941;52.220;104.306;2023-02-18T07:08:25;96813.25;;;-3.06;65.84
68141;BME280;54941;52.220;104.306;2023-02-18T07:10:51;96808.53;;;-3.22;67.58
68141;BME280;54941;52.220;104.306;2023-02-18T07:13:18;96801.34;;;-3.39;65.99
68141;BME280;54941;52.220;104.306;2023-02-18T07:15:45;96804.44;;;-3.12;66.33
68141;BME280;54941;52.220;104.306;2023-02-18T07:18:11;96813.56;;;-2.76;66.04
68141;BME280;54941;52.220;104.306;2023-02-18T07:20:39;96814.63;;;-2.67;66.28
68141;BME280;54941;52.220;104.306;2023-02-18T07:23:06;96810.00;;;-2.73;65.41
68141;BME280;54941;52.220;104.306;2023-02-18T07:25:32;96820.50;;;-3.02;65.61
68141;BME280;54941;52.220;104.306;2023-02-18T07:27:58;96811.28;;;-2.68;64.60
68141;BME280;54941;52.220;104.306;2023-02-18T07:30:25;96821.41;;;-2.46;64.13
68141;BME280;54941;52.220;104.306;2023-02-18T07:32:51;96814.63;;;-2.45;63.46
68141;BME280;54941;52.220;104.306;2023-02-18T07:35:18;96822.19;;;-2.56;64.52
68141;BME280;54941;52.220;104.306;2023-02-18T07:37:46;96818.94;;;-2.80;64.68
68141;BME280;54941;52.220;104.306;2023-02-18T07:40:17;96828.41;;;-2.95;64.94
68141;BME280;54941;52.220;104.306;2023-02-18T07:42:44;96830.31;;;-2.64;63.75
68141;BME280;54941;52.220;104.306;2023-02-18T07:45:11;96835.88;;;-2.93;63.30
68141;BME280;54941;52.220;104.306;2023-02-18T07:47:37;96834.13;;;-3.04;63.54
68141;BME280;54941;52.220;104.306;2023-02-18T07:50:05;96839.50;;;-3.32;64.46
68141;BME280;54941;52.220;104.306;2023-02-18T07:52:32;96844.97;;;-2.69;63.43
68141;BME280;54941;52.220;104.306;2023-02-18T07:55:00;96844.09;;;-2.57;62.65
68141;BME280;54941;52.220;104.306;2023-02-18T07:57:26;96850.66;;;-3.24;61.99
68141;BME280;54941;52.220;104.306;2023-02-18T07:59:52;96849.00;;;-3.36;63.05
68141;BME280;54941;52.220;104.306;2023-02-18T08:02:21;96857.69;;;-3.16;63.41
68141;BME280;54941;52.220;104.306;2023-02-18T08:04:48;96861.00;;;-3.16;64.05
68141;BME280;54941;52.220;104.306;2023-02-18T08:07:15;96852.25;;;-3.47;64.51
68141;BME280;54941;52.220;104.306;2023-02-18T08:09:43;96864.69;;;-3.32;64.79
68141;BME280;54941;52.220;104.306;2023-02-18T08:12:10;96866.31;;;-3.08;65.33
68141;BME280;54941;52.220;104.306;2023-02-18T08:14:37;96871.13;;;-3.28;64.63
68141;BME280;54941;52.220;104.306;2023-02-18T08:17:03;96860.84;;;-3.25;66.92
68141;BME280;54941;52.220;104.306;2023-02-18T08:19:30;96865.91;;;-3.62;67.97
68141;BME280;54941;52.220;104.306;2023-02-18T08:22:00;96875.50;;;-3.30;68.20
68141;BME280;54941;52.220;104.306;2023-02-18T08:24:26;96886.56;;;-3.09;68.85
68141;BME280;54941;52.220;104.306;2023-02-18T08:26:53;96885.09;;;-3.72;69.70
68141;BME280;54941;52.220;104.306;2023-02-18T08:29:21;96878.25;;;-3.46;70.13
68141;BME280;54941;52.220;104.306;2023-02-18T08:31:47;96881.94;;;-3.63;70.89
68141;BME280;54941;52.220;104.306;2023-02-18T08:34:13;96878.75;;;-3.41;70.69
68141;BME280;54941;52.220;104.306;2023-02-18T08:36:41;96896.69;;;-3.46;72.05
68141;BME280;54941;52.220;104.306;2023-02-18T08:39:07;96893.66;;;-3.87;72.20
68141;BME280;54941;52.220;104.306;2023-02-18T08:41:33;96899.75;;;-3.66;72.95
68141;BME280;54941;52.220;104.306;2023-02-18T08:44:00;96908.63;;;-3.60;73.09
68141;BME280;54941;52.220;104.306;2023-02-18T08:46:28;96906.19;;;-4.23;74.04
68141;BME280;54941;52.220;104.306;2023-02-18T08:48:54;96905.19;;;-4.08;74.61
68141;BME280;54941;52.220;104.306;2023-02-18T08:51:21;96907.78;;;-4.35;76.03
68141;BME280;54941;52.220;104.306;2023-02-18T08:53:48;96907.78;;;-4.35;77.34
68141;BME280;54941;52.220;104.306;2023-02-18T08:56:15;96917.03;;;-4.35;77.57
68141;BME280;54941;52.220;104.306;2023-02-18T08:58:42;96917.13;;;-4.62;78.11
68141;BME280;54941;52.220;104.306;2023-02-18T09:01:10;96912.72;;;-4.33;77.31
68141;BME280;54941;52.220;104.306;2023-02-18T09:03:38;96916.94;;;-4.47;77.92
68141;BME280;54941;52.220;104.306;2023-02-18T09:06:05;96921.28;;;-4.49;79.20
68141;BME280;54941;52.220;104.306;2023-02-18T09:08:32;96923.88;;;-4.63;79.35
68141;BME280;54941;52.220;104.306;2023-02-18T09:11:02;96925.19;;;-4.45;78.94
68141;BME280;54941;52.220;104.306;2023-02-18T09:13:28;96927.22;;;-4.37;78.35
68141;BME280;54941;52.220;104.306;2023-02-18T09:15:56;96923.97;;;-4.64;77.64
68141;BME280;54941;52.220;104.306;2023-02-18T09:18:22;96931.91;;;-4.70;77.57
68141;BME280;54941;52.220;104.306;2023-02-18T09:20:50;96933.25;;;-4.92;77.90
68141;BME280;54941;52.220;104.306;2023-02-18T09:23:17;96936.13;;;-4.98;78.47
68141;BME280;54941;52.220;104.306;2023-02-18T09:25:43;96938.78;;;-4.86;79.15
68141;BME280;54941;52.220;104.306;2023-02-18T09:28:10;96941.91;;;-5.10;80.00
68141;BME280;54941;52.220;104.306;2023-02-18T09:30:38;96945.75;;;-4.77;79.84
68141;BME280;54941;52.220;104.306;2023-02-18T09:33:04;96948.88;;;-4.74;79.92
68141;BME280;54941;52.220;104.306;2023-02-18T09:35:31;96943.56;;;-4.69;78.85
68141;BME280;54941;52.220;104.306;2023-02-18T09:37:59;96951.47;;;-4.75;78.71
68141;BME280;54941;52.220;104.306;2023-02-18T09:40:27;96949.50;;;-4.97;78.22
68141;BME280;54941;52.220;104.306;2023-02-18T09:42:55;96953.78;;;-5.12;78.71
68141;BME280;54941;52.220;104.306;2023-02-18T09:45:23;96951.72;;;-5.19;78.82
68141;BME280;54941;52.220;104.306;2023-02-18T09:47:49;96957.22;;;-5.27;78.46
68141;BME280;54941;52.220;104.306;2023-02-18T09:50:20;96957.16;;;-5.25;78.93
68141;BME280;54941;52.220;104.306;2023-02-18T09:52:47;96958.22;;;-5.29;78.21
68141;BME280;54941;52.220;104.306;2023-02-18T09:55:20;96953.63;;;-5.23;78.11
68141;BME280;54941;52.220;104.306;2023-02-18T09:57:49;96962.91;;;-5.37;78.33
68141;BME280;54941;52.220;104.306;2023-02-18T10:00:19;96964.94;;;-5.30;77.28
68141;BME280;54941;52.220;104.306;2023-02-18T10:02:53;96975.25;;;-5.34;77.08
68141;BME280;54941;52.220;104.306;2023-02-18T10:05:20;96973.22;;;-5.42;77.50
68141;BME280;54941;52.220;104.306;2023-02-18T10:07:52;96975.09;;;-5.46;77.90
68141;BME280;54941;52.220;104.306;2023-02-18T10:10:26;96980.84;;;-5.44;78.33
68141;BME280;54941;52.220;104.306;2023-02-18T10:12:56;96984.09;;;-5.56;77.86
68141;BME280;54941;52.220;104.306;2023-02-18T10:15:27;96983.28;;;-5.56;77.75
68141;BME280;54941;52.220;104.306;2023-02-18T10:17:55;96992.00;;;-5.62;76.96
68141;BME280;54941;52.220;104.306;2023-02-18T10:20:23;96992.16;;;-5.79;77.22
68141;BME280;54941;52.220;104.306;2023-02-18T10:22:52;96998.16;;;-5.67;75.71
68141;BME280;54941;52.220;104.306;2023-02-18T10:25:22;97012.53;;;-5.69;76.00
68141;BME280;54941;52.220;104.306;2023-02-18T10:27:50;97011.53;;;-5.67;76.38
68141;BME280;54941;52.220;104.306;2023-02-18T10:30:21;97014.03;;;-5.67;76.29
68141;BME280;54941;52.220;104.306;2023-02-18T10:32:50;97016.25;;;-5.76;76.73
68141;BME280;54941;52.220;104.306;2023-02-18T10:35:19;97014.94;;;-5.68;77.22
68141;BME280;54941;52.220;104.306;2023-02-18T10:37:56;97021.63;;;-5.82;77.80
68141;BME280;54941;52.220;104.306;2023-02-18T10:40:32;97023.72;;;-6.03;78.78
68141;BME280;54941;52.220;104.306;2023-02-18T10:43:08;97033.03;;;-5.91;79.35
68141;BME280;54941;52.220;104.306;2023-02-18T10:45:47;97036.69;;;-5.82;80.00
68141;BME280;54941;52.220;104.306;2023-02-18T10:48:27;97045.06;;;-5.96;80.13
68141;BME280;54941;52.220;104.306;2023-02-18T10:50:59;97038.88;;;-5.91;80.14
68141;BME280;54941;52.220;104.306;2023-02-18T10:53:32;97055.53;;;-5.89;79.93
68141;BME280;54941;52.220;104.306;2023-02-18T10:56:00;97047.94;;;-5.88;79.48
68141;BME280;54941;52.220;104.306;2023-02-18T10:58:30;97052.13;;;-6.03;79.69
68141;BME280;54941;52.220;104.306;2023-02-18T11:00:57;97052.59;;;-5.96;79.15
68141;BME280;54941;52.220;104.306;2023-02-18T11:03:26;97062.16;;;-6.03;78.76
68141;BME280;54941;52.220;104.306;2023-02-18T11:06:03;97075.22;;;-5.98;77.64
68141;BME280;54941;52.220;104.306;2023-02-18T11:08:41;97073.97;;;-6.05;77.55
68141;BME280;54941;52.220;104.306;2023-02-18T11:11:13;97068.06;;;-6.04;77.24
68141;BME280;54941;52.220;104.306;2023-02-18T11:13:41;97073.78;;;-6.02;76.76
68141;BME280;54941;52.220;104.306;2023-02-18T11:16:08;97076.28;;;-6.02;76.49
68141;BME280;54941;52.220;104.306;2023-02-18T11:18:38;97077.09;;;-6.01;76.05
68141;BME280;54941;52.220;104.306;2023-02-18T11:21:18;97080.06;;;-5.95;75.94
68141;BME280;54941;52.220;104.306;2023-02-18T11:23:46;97090.81;;;-6.07;75.57
68141;BME280;54941;52.220;104.306;2023-02-18T11:26:15;97087.28;;;-6.18;75.65
68141;BME280;54941;52.220;104.306;2023-02-18T11:28:45;97081.91;;;-6.12;75.72
68141;BME280;54941;52.220;104.306;2023-02-18T11:31:19;97100.25;;;-6.26;75.80
68141;BME280;54941;52.220;104.306;2023-02-18T11:33:49;97093.50;;;-6.10;75.27
68141;BME280;54941;52.220;104.306;2023-02-18T11:36:21;97089.25;;;-6.09;74.43
68141;BME280;54941;52.220;104.306;2023-02-18T11:38:50;97088.47;;;-6.10;74.05
68141;BME280;54941;52.220;104.306;2023-02-18T11:41:20;97088.63;;;-6.13;73.83
68141;BME280;54941;52.220;104.306;2023-02-18T11:43:50;97086.50;;;-6.05;73.26
68141;BME280;54941;52.220;104.306;2023-02-18T11:46:19;97094.84;;;-6.04;73.10
68141;BME280;54941;52.220;104.306;2023-02-18T11:48:46;97099.06;;;-6.05;72.93
68141;BME280;54941;52.220;104.306;2023-02-18T11:51:17;97093.13;;;-6.18;73.07
68141;BME280;54941;52.220;104.306;2023-02-18T11:53:59;97108.78;;;-6.14;72.78
68141;BME280;54941;52.220;104.306;2023-02-18T11:56:29;97101.22;;;-6.28;73.27
68141;BME280;54941;52.220;104.306;2023-02-18T11:58:56;97104.50;;;-6.12;73.99
68141;BME280;54941;52.220;104.306;2023-02-18T12:01:35;97102.50;;;-6.21;74.02
68141;BME280;54941;52.220;104.306;2023-02-18T12:04:08;97106.25;;;-5.99;73.46
68141;BME280;54941;52.220;104.306;2023-02-18T12:06:40;97110.28;;;-6.26;74.16
68141;BME280;54941;52.220;104.306;2023-02-18T12:09:16;97111.31;;;-6.14;73.99
68141;BME280;54941;52.220;104.306;2023-02-18T12:11:48;97111.75;;;-6.08;74.32
68141;BME280;54941;52.220;104.306;2023-02-18T12:14:17;97110.50;;;-6.15;74.32
68141;BME280;54941;52.220;104.306;2023-02-18T12:16:54;97106.75;;;-6.08;74.22
68141;BME280;54941;52.220;104.306;2023-02-18T12:19:41;97105.56;;;-6.16;74.32
68141;BME280;54941;52.220;104.306;2023-02-18T12:22:17;97106.13;;;-6.11;74.59
68141;BME280;54941;52.220;104.306;2023-02-18T12:25:02;97109.25;;;-6.08;74.76
68141;BME280;54941;52.220;104.306;2023-02-18T12:27:37;97106.59;;;-5.91;74.14
68141;BME280;54941;52.220;104.306;2023-02-18T12:30:24;97115.91;;;-6.07;73.55
68141;BME280;54941;52.220;104.306;2023-02-18T12:33:01;97117.66;;;-6.09;74.30
68141;BME280;54941;52.220;104.306;2023-02-18T12:35:51;97120.81;;;-6.05;74.06
68141;BME280;54941;52.220;104.306;2023-02-18T12:38:49;97126.97;;;-5.95;73.50
68141;BME280;54941;52.220;104.306;2023-02-18T12:44:34;97122.84;;;-6.12;73.57
68141;BME280;54941;52.220;104.306;2023-02-18T12:47:29;97133.88;;;-6.14;72.99
68141;BME280;54941;52.220;104.306;2023-02-18T12:53:29;97140.34;;;-6.10;73.01
68141;BME280;54941;52.220;104.306;2023-02-18T12:56:01;97142.63;;;-6.21;73.36
68141;BME280;54941;52.220;104.306;2023-02-18T12:58:39;97152.38;;;-6.17;73.81
68141;BME280;54941;52.220;104.306;2023-02-18T13:01:28;97144.56;;;-6.11;73.84
68141;BME280;54941;52.220;104.306;2023-02-18T13:04:25;97150.56;;;-6.29;73.22